sensor_id;sensor_type;location;lat;lon;timestamp;pressure;altitude;pressure_sealevel;temperature;humidity
21658;BME280;10990;48.174;9.782;2023-06-04T00:00:58;95635.53;;;13.09;100.00
21658;BME280;10990;48.174;9.782;2023-06-04T00:03:26;95623.13;;;13.34;100.00
21658;BME280;10990;48.174;9.782;2023-06-04T00:05:53;95626.44;;;13.28;100.00
21658;BME280;10990;48.174;9.782;2023-06-04T00:08:19;95629.78;;;13.38;100.00
21658;BME280;10990;48.174;9.782;2023-06-04T00:10:47;95632.22;;;13.56;100.00
21658;BME280;10990;48.174;9.782;2023-06-04T00:13:14;95634.53;;;13.59;100.00
21658;BME280;10990;48.174;9.782;2023-06-04T00:15:40;95633.41;;;13.37;100.00
21658;BME280;10990;48.174;9.782;2023-06-04T00:18:07;95627.41;;;13.59;100.00
21658;BME280;10990;48.174;9.782;2023-06-04T00:20:37;95632.72;;;13.51;100.00
21658;BME280;10990;48.174;9.782;2023-06-04T00:23:04;95622.06;;;13.67;100.00
21658;BME280;10990;48.174;9.782;2023-06-04T00:25:31;95625.25;;;13.63;100.00
21658;BME280;10990;48.174;9.782;2023-06-04T00:27:58;95624.25;;;13.64;100.00
21658;BME280;10990;48.174;9.782;2023-06-04T00:30:24;95625.75;;;13.58;100.00
21658;BME280;10990;48.174;9.782;2023-06-04T00:32:51;95647.34;;;13.22;100.00
21658;BME280;10990;48.174;9.782;2023-06-04T00:35:18;95632.34;;;12.72;100.00
21658;BME280;10990;48.174;9.782;2023-06-04T00:37:47;95635.63;;;12.58;100.00
21658;BME280;10990;48.174;9.782;2023-06-04T00:40:14;95628.22;;;12.62;100.00
21658;BME280;10990;48.174;9.782;2023-06-04T00:42:41;95630.34;;;12.66;100.00
21658;BME280;10990;48.174;9.782;2023-06-04T00:45:09;95637.00;;;12.62;100.00
21658;BME280;10990;48.174;9.782;2023-06-04T00:47:36;95631.84;;;12.69;100.00
21658;BME280;10990;48.174;9.782;2023-06-04T00:50:04;95630.50;;;12.48;100.00
21658;BME280;10990;48.174;9.782;2023-06-04T00:52:33;95636.97;;;12.54;100.00
21658;BME280;10990;48.174;9.782;2023-06-04T00:55:02;95621.88;;;12.54;100.00
21658;BME280;10990;48.174;9.782;2023-06-04T00:57:28;95601.34;;;12.65;100.00
21658;BME280;10990;48.174;9.782;2023-06-04T00:59:55;95589.25;;;12.87;100.00
21658;BME280;10990;48.174;9.782;2023-06-04T01:02:23;95589.09;;;13.05;100.00
21658;BME280;10990;48.174;9.782;2023-06-04T01:04:58;95587.09;;;12.98;100.00
21658;BME280;10990;48.174;9.782;2023-06-04T01:07:29;95583.94;;;12.70;100.00
21658;BME280;10990;48.174;9.782;2023-06-04T01:09:56;95571.16;;;12.66;100.00
21658;BME280;10990;48.174;9.782;2023-06-04T01:12:25;95571.50;;;12.79;100.00
21658;BME280;10990;48.174;9.782;2023-06-04T01:14:51;95567.03;;;12.88;100.00
21658;BME280;10990;48.174;9.782;2023-06-04T01:17:20;95573.31;;;12.95;100.00
21658;BME280;10990;48.174;9.782;2023-06-04T01:20:18;95573.97;;;12.89;100.00
21658;BME280;10990;48.174;9.782;2023-06-04T01:23:00;95578.63;;;12.95;100.00
21658;BME280;10990;48.174;9.782;2023-06-04T01:25:33;95582.78;;;12.97;100.00
21658;BME280;10990;48.174;9.782;2023-06-04T01:28:05;95593.09;;;12.92;100.00
21658;BME280;10990;48.174;9.782;2023-06-04T01:30:34;95601.19;;;12.99;100.00
21658;BME280;10990;48.174;9.782;2023-06-04T01:33:09;95613.13;;;13.11;100.00
21658;BME280;10990;48.174;9.782;2023-06-04T01:35:36;95617.28;;;13.14;100.00
21658;BME280;10990;48.174;9.782;2023-06-04T01:38:03;95622.13;;;13.10;100.00
21658;BME280;10990;48.174;9.782;2023-06-04T01:40:30;95631.09;;;13.01;100.00
21658;BME280;10990;48.174;9.782;2023-06-04T01:42:57;95627.88;;;12.89;100.00
21658;BME280;10990;48.174;9.782;2023-06-04T01:45:27;95629.25;;;12.93;100.00
21658;BME280;10990;48.174;9.782;2023-06-04T01:47:54;95633.50;;;12.62;100.00
21658;BME280;10990;48.174;9.782;2023-06-04T01:50:23;95634.84;;;12.66;100.00
21658;BME280;10990;48.174;9.782;2023-06-04T01:52:49;95648.44;;;12.63;100.00
21658;BME280;10990;48.174;9.782;2023-06-04T01:55:17;95655.25;;;12.65;100.00
21658;BME280;10990;48.174;9.782;2023-06-04T01:57:45;95657.22;;;12.63;100.00
21658;BME280;10990;48.174;9.782;2023-06-04T02:00:13;95661.34;;;12.57;100.00
21658;BME280;10990;48.174;9.782;2023-06-04T02:02:42;95658.72;;;12.66;100.00
21658;BME280;10990;48.174;9.782;2023-06-04T02:05:10;95662.88;;;12.68;100.00
21658;BME280;10990;48.174;9.782;2023-06-04T02:07:38;95663.69;;;12.69;100.00
21658;BME280;10990;48.174;9.782;2023-06-04T02:10:06;95668.00;;;12.62;100.00
21658;BME280;10990;48.174;9.782;2023-06-04T02:12:35;95667.31;;;12.51;100.00
21658;BME280;10990;48.174;9.782;2023-06-04T02:15:02;95670.28;;;12.48;100.00
21658;BME280;10990;48.174;9.782;2023-06-04T02:17:29;95672.63;;;12.51;100.00
21658;BME280;10990;48.174;9.782;2023-06-04T02:19:59;95675.09;;;12.45;100.00
21658;BME280;10990;48.174;9.782;2023-06-04T02:22:26;95674.41;;;12.43;100.00
21658;BME280;10990;48.174;9.782;2023-06-04T02:24:52;95682.19;;;12.44;100.00
21658;BME280;10990;48.174;9.782;2023-06-04T02:27:19;95688.69;;;12.42;100.00
21658;BME280;10990;48.174;9.782;2023-06-04T02:29:46;95690.66;;;12.40;100.00
21658;BME280;10990;48.174;9.782;2023-06-04T02:32:13;95696.41;;;12.35;100.00
21658;BME280;10990;48.174;9.782;2023-06-04T02:34:40;95704.59;;;12.42;100.00
21658;BME280;10990;48.174;9.782;2023-06-04T02:37:08;95707.22;;;12.33;100.00
21658;BME280;10990;48.174;9.782;2023-06-04T02:39:35;95704.34;;;12.27;100.00
21658;BME280;10990;48.174;9.782;2023-06-04T02:42:02;95709.81;;;12.25;100.00
21658;BME280;10990;48.174;9.782;2023-06-04T02:44:28;95718.91;;;12.23;100.00
21658;BME280;10990;48.174;9.782;2023-06-04T02:46:56;95720.66;;;12.40;100.00
21658;BME280;10990;48.174;9.782;2023-06-04T02:49:22;95733.19;;;12.30;100.00
21658;BME280;10990;48.174;9.782;2023-06-04T02:51:49;95732.38;;;12.29;100.00
21658;BME280;10990;48.174;9.782;2023-06-04T02:54:17;95741.19;;;12.38;100.00
21658;BME280;10990;48.174;9.782;2023-06-04T02:56:44;95740.28;;;12.21;100.00
21658;BME280;10990;48.174;9.782;2023-06-04T02:59:11;95741.28;;;12.20;100.00
21658;BME280;10990;48.174;9.782;2023-06-04T03:01:39;95744.88;;;12.11;100.00
21658;BME280;10990;48.174;9.782;2023-06-04T03:04:06;95743.50;;;12.07;100.00
21658;BME280;10990;48.174;9.782;2023-06-04T03:06:36;95743.81;;;12.04;100.00
21658;BME280;10990;48.174;9.782;2023-06-04T03:09:03;95757.53;;;11.99;100.00
21658;BME280;10990;48.174;9.782;2023-06-04T03:11:32;95762.19;;;11.97;100.00
21658;BME280;10990;48.174;9.782;2023-06-04T03:13:58;95761.97;;;11.91;100.00
21658;BME280;10990;48.174;9.782;2023-06-04T03:16:25;95752.88;;;11.93;100.00
21658;BME280;10990;48.174;9.782;2023-06-04T03:18:52;95750.28;;;12.01;100.00
21658;BME280;10990;48.174;9.782;2023-06-04T03:21:19;95765.16;;;11.94;100.00
21658;BME280;10990;48.174;9.782;2023-06-04T03:23:46;95768.25;;;11.89;100.00
21658;BME280;10990;48.174;9.782;2023-06-04T03:26:13;95767.25;;;11.91;100.00
21658;BME280;10990;48.174;9.782;2023-06-04T03:28:41;95764.91;;;11.87;100.00
21658;BME280;10990;48.174;9.782;2023-06-04T03:31:10;95769.47;;;11.77;100.00
21658;BME280;10990;48.174;9.782;2023-06-04T03:33:38;95775.81;;;11.84;100.00
21658;BME280;10990;48.174;9.782;2023-06-04T03:36:05;95774.47;;;11.80;100.00
21658;BME280;10990;48.174;9.782;2023-06-04T03:38:31;95774.97;;;11.84;100.00
21658;BME280;10990;48.174;9.782;2023-06-04T03:40:59;95773.31;;;11.83;100.00
21658;BME280;10990;48.174;9.782;2023-06-04T03:43:25;95776.09;;;11.99;100.00
21658;BME280;10990;48.174;9.782;2023-06-04T03:45:59;95778.91;;;11.98;100.00
21658;BME280;10990;48.174;9.782;2023-06-04T03:48:26;95774.97;;;12.02;100.00
21658;BME280;10990;48.174;9.782;2023-06-04T03:50:52;95778.09;;;11.97;100.00
21658;BME280;10990;48.174;9.782;2023-06-04T03:53:20;95784.28;;;12.06;100.00
21658;BME280;10990;48.174;9.782;2023-06-04T03:55:47;95791.22;;;12.07;100.00
21658;BME280;10990;48.174;9.782;2023-06-04T03:58:13;95789.41;;;12.07;100.00
21658;BME280;10990;48.174;9.782;2023-06-04T04:00:44;95795.78;;;12.15;100.00
21658;BME280;10990;48.174;9.782;2023-06-04T04:03:13;95794.06;;;12.05;100.00
21658;BME280;10990;48.174;9.782;2023-06-04T04:05:40;95789.69;;;12.22;100.00
21658;BME280;10990;48.174;9.782;2023-06-04T04:08:07;95793.91;;;12.41;100.00
21658;BME280;10990;48.174;9.782;2023-06-04T04:10:34;95801.00;;;12.32;100.00
21658;BME280;10990;48.174;9.782;2023-06-04T04:13:03;95793.44;;;12.11;100.00
21658;BME280;10990;48.174;9.782;2023-06-04T04:15:33;95802.09;;;11.96;100.00
21658;BME280;10990;48.174;9.782;2023-06-04T04:18:02;95795.91;;;11.87;100.00
21658;BME280;10990;48.174;9.782;2023-06-04T04:20:31;95794.53;;;11.83;100.00
21658;BME280;10990;48.174;9.782;2023-06-04T04:23:03;95799.09;;;12.17;100.00
21658;BME280;10990;48.174;9.782;2023-06-04T04:25:33;95798.53;;;12.31;100.00
21658;BME280;10990;48.174;9.782;2023-06-04T04:28:02;95812.34;;;12.43;100.00
21658;BME280;10990;48.174;9.782;2023-06-04T04:30:33;95809.31;;;12.38;100.00
21658;BME280;10990;48.174;9.782;2023-06-04T04:33:01;95820.94;;;12.37;100.00
21658;BME280;10990;48.174;9.782;2023-06-04T04:35:37;95823.41;;;12.38;100.00
21658;BME280;10990;48.174;9.782;2023-06-04T04:38:05;95827.31;;;12.26;100.00
21658;BME280;10990;48.174;9.782;2023-06-04T04:40:38;95824.69;;;12.26;100.00
21658;BME280;10990;48.174;9.782;2023-06-04T04:43:07;95832.31;;;12.29;100.00
21658;BME280;10990;48.174;9.782;2023-06-04T04:45:35;95828.13;;;12.52;100.00
21658;BME280;10990;48.174;9.782;2023-06-04T04:48:03;95832.31;;;12.55;100.00
21658;BME280;10990;48.174;9.782;2023-06-04T04:50:31;95837.06;;;12.77;100.00
21658;BME280;10990;48.174;9.782;2023-06-04T04:53:00;95831.72;;;13.12;100.00
21658;BME280;10990;48.174;9.782;2023-06-04T04:55:27;95828.06;;;13.05;100.00
21658;BME280;10990;48.174;9.782;2023-06-04T04:57:54;95837.13;;;12.94;100.00
21658;BME280;10990;48.174;9.782;2023-06-04T05:00:23;95846.53;;;13.22;100.00
21658;BME280;10990;48.174;9.782;2023-06-04T05:02:52;95853.28;;;13.09;100.00
21658;BME280;10990;48.174;9.782;2023-06-04T05:05:19;95855.50;;;13.21;100.00
21658;BME280;10990;48.174;9.782;2023-06-04T05:07:48;95853.81;;;13.55;100.00
21658;BME280;10990;48.174;9.782;2023-06-04T05:10:18;95860.41;;;13.51;100.00
21658;BME280;10990;48.174;9.782;2023-06-04T05:12:51;95871.25;;;13.74;100.00
21658;BME280;10990;48.174;9.782;2023-06-04T05:15:19;95874.47;;;13.85;100.00
21658;BME280;10990;48.174;9.782;2023-06-04T05:17:47;95874.59;;;13.76;100.00
21658;BME280;10990;48.174;9.782;2023-06-04T05:20:16;95875.44;;;14.01;100.00
21658;BME280;10990;48.174;9.782;2023-06-04T05:22:44;95877.78;;;13.96;100.00
21658;BME280;10990;48.174;9.782;2023-06-04T05:25:11;95882.63;;;14.25;100.00
21658;BME280;10990;48.174;9.782;2023-06-04T05:27:40;95881.28;;;14.29;100.00
21658;BME280;10990;48.174;9.782;2023-06-04T05:30:10;95886.25;;;14.73;100.00
21658;BME280;10990;48.174;9.782;2023-06-04T05:32:38;95887.25;;;14.55;100.00
21658;BME280;10990;48.174;9.782;2023-06-04T05:35:08;95901.22;;;14.74;100.00
21658;BME280;10990;48.174;9.782;2023-06-04T05:37:38;95904.03;;;14.80;100.00
21658;BME280;10990;48.174;9.782;2023-06-04T05:40:07;95902.16;;;14.89;100.00
21658;BME280;10990;48.174;9.782;2023-06-04T05:42:36;95900.94;;;15.16;100.00
21658;BME280;10990;48.174;9.782;2023-06-04T05:45:06;95906.88;;;15.35;100.00
21658;BME280;10990;48.174;9.782;2023-06-04T05:47:34;95909.22;;;15.30;100.00
21658;BME280;10990;48.174;9.782;2023-06-04T05:50:03;95915.22;;;15.32;100.00
21658;BME280;10990;48.174;9.782;2023-06-04T05:52:31;95912.88;;;15.68;100.00
21658;BME280;10990;48.174;9.782;2023-06-04T05:54:58;95908.78;;;16.34;100.00
21658;BME280;10990;48.174;9.782;2023-06-04T05:57:25;95912.53;;;16.25;100.00
21658;BME280;10990;48.174;9.782;2023-06-04T05:59:52;95914.13;;;16.34;100.00
21658;BME280;10990;48.174;9.782;2023-06-04T06:02:21;95917.16;;;16.08;100.00
21658;BME280;10990;48.174;9.782;2023-06-04T06:04:47;95908.22;;;16.62;100.00
21658;BME280;10990;48.174;9.782;2023-06-04T06:07:14;95910.03;;;16.99;100.00
21658;BME280;10990;48.174;9.782;2023-06-04T06:09:41;95912.44;;;16.56;100.00
21658;BME280;10990;48.174;9.782;2023-06-04T06:12:08;95918.81;;;16.70;100.00
21658;BME280;10990;48.174;9.782;2023-06-04T06:14:37;95905.50;;;16.85;100.00
21658;BME280;10990;48.174;9.782;2023-06-04T06:17:04;95909.22;;;16.84;100.00
21658;BME280;10990;48.174;9.782;2023-06-04T06:19:33;95908.66;;;17.33;100.00
21658;BME280;10990;48.174;9.782;2023-06-04T06:22:00;95911.88;;;16.84;100.00
21658;BME280;10990;48.174;9.782;2023-06-04T06:24:29;95910.66;;;17.61;100.00
21658;BME280;10990;48.174;9.782;2023-06-04T06:26:56;95912.44;;;18.05;100.00
21658;BME280;10990;48.174;9.782;2023-06-04T06:29:23;95913.25;;;18.48;100.00
21658;BME280;10990;48.174;9.782;2023-06-04T06:31:51;95918.50;;;17.47;100.00
21658;BME280;10990;48.174;9.782;2023-06-04T06:34:18;95916.00;;;18.12;100.00
21658;BME280;10990;48.174;9.782;2023-06-04T06:36:46;95915.41;;;17.95;100.00
21658;BME280;10990;48.174;9.782;2023-06-04T06:39:13;95923.16;;;18.26;100.00
21658;BME280;10990;48.174;9.782;2023-06-04T06:41:40;95915.38;;;18.53;100.00
21658;BME280;10990;48.174;9.782;2023-06-04T06:44:11;95917.19;;;18.52;100.00
21658;BME280;10990;48.174;9.782;2023-06-04T06:46:37;95916.97;;;18.47;100.00
21658;BME280;10990;48.174;9.782;2023-06-04T06:49:04;95923.72;;;18.43;100.00
21658;BME280;10990;48.174;9.782;2023-06-04T06:51:31;95924.94;;;18.19;100.00
21658;BME280;10990;48.174;9.782;2023-06-04T06:53:59;95921.91;;;18.93;100.00
21658;BME280;10990;48.174;9.782;2023-06-04T06:56:26;95916.38;;;19.30;100.00
21658;BME280;10990;48.174;9.782;2023-06-04T06:58:52;95922.16;;;18.98;100.00
21658;BME280;10990;48.174;9.782;2023-06-04T07:01:19;95924.97;;;19.18;100.00
21658;BME280;10990;48.174;9.782;2023-06-04T07:03:46;95922.38;;;19.38;100.00
21658;BME280;10990;48.174;9.782;2023-06-04T07:06:13;95930.63;;;19.02;100.00
21658;BME280;10990;48.174;9.782;2023-06-04T07:08:40;95916.78;;;19.33;100.00
21658;BME280;10990;48.174;9.782;2023-06-04T07:11:09;95907.97;;;19.87;100.00
21658;BME280;10990;48.174;9.782;2023-06-04T07:13:38;95911.38;;;20.29;100.00
21658;BME280;10990;48.174;9.782;2023-06-04T07:16:04;95910.38;;;20.44;100.00
21658;BME280;10990;48.174;9.782;2023-06-04T07:18:31;95909.59;;;20.76;100.00
21658;BME280;10990;48.174;9.782;2023-06-04T07:20:58;95913.28;;;20.42;100.00
21658;BME280;10990;48.174;9.782;2023-06-04T07:23:25;95916.53;;;20.11;100.00
21658;BME280;10990;48.174;9.782;2023-06-04T07:25:53;95918.88;;;20.60;100.00
21658;BME280;10990;48.174;9.782;2023-06-04T07:28:22;95908.53;;;20.97;100.00
21658;BME280;10990;48.174;9.782;2023-06-04T07:30:49;95912.25;;;21.16;100.00
21658;BME280;10990;48.174;9.782;2023-06-04T07:33:16;95911.47;;;20.56;100.00
21658;BME280;10990;48.174;9.782;2023-06-04T07:35:42;95915.53;;;20.32;100.00
21658;BME280;10990;48.174;9.782;2023-06-04T07:38:09;95913.72;;;20.66;100.00
21658;BME280;10990;48.174;9.782;2023-06-04T07:40:35;95898.84;;;20.90;100.00
21658;BME280;10990;48.174;9.782;2023-06-04T07:43:02;95905.88;;;20.64;100.00
21658;BME280;10990;48.174;9.782;2023-06-04T07:45:30;95902.78;;;20.67;100.00
21658;BME280;10990;48.174;9.782;2023-06-04T07:47:57;95900.47;;;20.51;100.00
21658;BME280;10990;48.174;9.782;2023-06-04T07:52:50;95886.59;;;21.85;100.00
21658;BME280;10990;48.174;9.782;2023-06-04T07:55:17;95877.97;;;21.70;100.00
21658;BME280;10990;48.174;9.782;2023-06-04T07:57:44;95888.06;;;21.03;100.00
21658;BME280;10990;48.174;9.782;2023-06-04T08:00:11;95896.16;;;20.63;100.00
21658;BME280;10990;48.174;9.782;2023-06-04T08:02:41;95878.66;;;21.97;100.00
21658;BME280;10990;48.174;9.782;2023-06-04T08:05:08;95877.34;;;22.45;100.00
21658;BME280;10990;48.174;9.782;2023-06-04T08:07:35;95867.13;;;23.96;100.00
21658;BME280;10990;48.174;9.782;2023-06-04T08:10:02;95883.28;;;23.29;100.00
21658;BME280;10990;48.174;9.782;2023-06-04T08:12:28;95879.81;;;22.78;100.00
21658;BME280;10990;48.174;9.782;2023-06-04T08:14:55;95889.00;;;22.00;100.00
21658;BME280;10990;48.174;9.782;2023-06-04T08:17:23;95878.81;;;22.41;100.00
21658;BME280;10990;48.174;9.782;2023-06-04T08:19:51;95878.50;;;23.49;100.00
21658;BME280;10990;48.174;9.782;2023-06-04T08:22:17;95873.91;;;23.86;100.00
21658;BME280;10990;48.174;9.782;2023-06-04T08:24:44;95886.97;;;22.34;100.00
21658;BME280;10990;48.174;9.782;2023-06-04T08:27:12;95883.84;;;22.87;100.00
21658;BME280;10990;48.174;9.782;2023-06-04T08:29:38;95869.34;;;23.32;100.00
21658;BME280;10990;48.174;9.782;2023-06-04T08:32:05;95887.16;;;22.32;100.00
21658;BME280;10990;48.174;9.782;2023-06-04T08:34:33;95882.56;;;22.96;100.00
21658;BME280;10990;48.174;9.782;2023-06-04T08:37:01;95882.16;;;22.68;100.00
21658;BME280;10990;48.174;9.782;2023-06-04T08:39:27;95878.31;;;23.62;100.00
21658;BME280;10990;48.174;9.782;2023-06-04T08:41:56;95883.22;;;22.67;100.00
21658;BME280;10990;48.174;9.782;2023-06-04T08:44:26;95878.63;;;23.36;100.00
21658;BME280;10990;48.174;9.782;2023-06-04T08:46:53;95875.31;;;23.34;100.00
21658;BME280;10990;48.174;9.782;2023-06-04T08:49:24;95878.69;;;23.84;100.00
21658;BME280;10990;48.174;9.782;2023-06-04T08:51:51;95882.88;;;23.07;100.00
21658;BME280;10990;48.174;9.782;2023-06-04T08:54:19;95886.72;;;22.92;100.00
21658;BME280;10990;48.174;9.782;2023-06-04T08:56:46;95890.53;;;23.28;100.00
21658;BME280;10990;48.174;9.782;2023-06-04T08:59:14;95875.06;;;24.09;100.00
21658;BME280;10990;48.174;9.782;2023-06-04T09:01:42;95869.41;;;25.06;98.81
21658;BME280;10990;48.174;9.782;2023-06-04T09:04:10;95871.03;;;25.07;99.85
21658;BME280;10990;48.174;9.782;2023-06-04T09:06:38;95887.63;;;23.66;100.00
21658;BME280;10990;48.174;9.782;2023-06-04T09:09:09;95888.84;;;23.70;100.00
21658;BME280;10990;48.174;9.782;2023-06-04T09:11:44;95887.78;;;23.53;100.00
21658;BME280;10990;48.174;9.782;2023-06-04T09:14:14;95892.34;;;23.53;100.00
21658;BME280;10990;48.174;9.782;2023-06-04T09:16:43;95891.03;;;23.80;100.00
21658;BME280;10990;48.174;9.782;2023-06-04T09:19:10;95889.97;;;23.81;100.00
21658;BME280;10990;48.174;9.782;2023-06-04T09:21:49;95881.66;;;23.83;100.00
21658;BME280;10990;48.174;9.782;2023-06-04T09:24:16;95890.41;;;23.60;100.00
21658;BME280;10990;48.174;9.782;2023-06-04T09:26:44;95889.56;;;23.22;100.00
21658;BME280;10990;48.174;9.782;2023-06-04T09:29:11;95879.47;;;23.55;100.00
21658;BME280;10990;48.174;9.782;2023-06-04T09:31:38;95877.28;;;23.82;100.00
21658;BME280;10990;48.174;9.782;2023-06-04T09:34:05;95885.38;;;23.26;100.00
21658;BME280;10990;48.174;9.782;2023-06-04T09:36:32;95880.91;;;22.95;100.00
21658;BME280;10990;48.174;9.782;2023-06-04T09:39:00;95875.44;;;23.45;100.00
21658;BME280;10990;48.174;9.782;2023-06-04T09:41:28;95890.00;;;22.94;100.00
21658;BME280;10990;48.174;9.782;2023-06-04T09:44:00;95877.38;;;23.75;100.00
21658;BME280;10990;48.174;9.782;2023-06-04T09:46:29;95882.44;;;23.10;100.00
21658;BME280;10990;48.174;9.782;2023-06-04T09:49:00;95890.22;;;22.43;100.00
21658;BME280;10990;48.174;9.782;2023-06-04T09:51:28;95882.75;;;22.45;100.00
21658;BME280;10990;48.174;9.782;2023-06-04T09:53:57;95883.50;;;23.27;100.00
21658;BME280;10990;48.174;9.782;2023-06-04T09:56:24;95881.59;;;22.84;100.00
21658;BME280;10990;48.174;9.782;2023-06-04T09:58:54;95881.00;;;22.82;100.00
21658;BME280;10990;48.174;9.782;2023-06-04T10:01:26;95880.06;;;23.38;100.00
21658;BME280;10990;48.174;9.782;2023-06-04T10:03:53;95878.91;;;23.09;99.16
21658;BME280;10990;48.174;9.782;2023-06-04T10:06:22;95874.50;;;22.90;100.00
21658;BME280;10990;48.174;9.782;2023-06-04T10:08:50;95888.16;;;22.70;100.00
21658;BME280;10990;48.174;9.782;2023-06-04T10:11:22;95866.63;;;22.63;100.00
21658;BME280;10990;48.174;9.782;2023-06-04T10:13:53;95869.25;;;23.20;100.00
21658;BME280;10990;48.174;9.782;2023-06-04T10:16:21;95872.97;;;23.00;100.00
21658;BME280;10990;48.174;9.782;2023-06-04T10:18:52;95885.66;;;22.43;100.00
21658;BME280;10990;48.174;9.782;2023-06-04T10:21:21;95871.13;;;22.69;100.00
21658;BME280;10990;48.174;9.782;2023-06-04T10:23:49;95867.75;;;23.61;100.00
21658;BME280;10990;48.174;9.782;2023-06-04T10:26:16;95868.16;;;22.77;100.00
21658;BME280;10990;48.174;9.782;2023-06-04T10:28:43;95878.00;;;22.40;100.00
21658;BME280;10990;48.174;9.782;2023-06-04T10:31:11;95869.78;;;23.29;99.02
21658;BME280;10990;48.174;9.782;2023-06-04T10:33:38;95861.75;;;23.59;92.38
21658;BME280;10990;48.174;9.782;2023-06-04T10:36:21;95861.69;;;22.60;96.39
21658;BME280;10990;48.174;9.782;2023-06-04T10:38:49;95873.00;;;22.69;100.00
21658;BME280;10990;48.174;9.782;2023-06-04T10:41:17;95868.28;;;22.89;100.00
21658;BME280;10990;48.174;9.782;2023-06-04T10:43:47;95864.06;;;23.74;100.00
21658;BME280;10990;48.174;9.782;2023-06-04T10:46:16;95870.28;;;23.00;98.47
21658;BME280;10990;48.174;9.782;2023-06-04T10:48:47;95861.69;;;23.47;97.87
21658;BME280;10990;48.174;9.782;2023-06-04T10:51:15;95868.72;;;23.48;96.85
21658;BME280;10990;48.174;9.782;2023-06-04T10:53:43;95864.63;;;23.45;100.00
21658;BME280;10990;48.174;9.782;2023-06-04T10:56:10;95871.41;;;23.11;98.72
21658;BME280;10990;48.174;9.782;2023-06-04T10:58:37;95870.66;;;22.54;94.92
21658;BME280;10990;48.174;9.782;2023-06-04T11:01:04;95867.94;;;22.79;96.45
21658;BME280;10990;48.174;9.782;2023-06-04T11:03:37;95863.56;;;23.83;93.14
21658;BME280;10990;48.174;9.782;2023-06-04T11:06:14;95875.59;;;22.57;93.05
21658;BME280;10990;48.174;9.782;2023-06-04T11:08:43;95859.94;;;23.16;96.96
21658;BME280;10990;48.174;9.782;2023-06-04T11:11:11;95863.31;;;23.11;93.19
21658;BME280;10990;48.174;9.782;2023-06-04T11:13:39;95859.88;;;22.79;88.71
21658;BME280;10990;48.174;9.782;2023-06-04T11:16:14;95854.03;;;23.25;92.14
21658;BME280;10990;48.174;9.782;2023-06-04T11:18:41;95865.22;;;23.29;92.88
21658;BME280;10990;48.174;9.782;2023-06-04T11:21:08;95857.09;;;23.66;93.05
21658;BME280;10990;48.174;9.782;2023-06-04T11:23:36;95860.72;;;23.41;95.17
21658;BME280;10990;48.174;9.782;2023-06-04T11:26:04;95855.59;;;23.33;91.73
21658;BME280;10990;48.174;9.782;2023-06-04T11:28:32;95849.56;;;24.05;91.43
21658;BME280;10990;48.174;9.782;2023-06-04T11:30:59;95856.66;;;23.50;86.12
21658;BME280;10990;48.174;9.782;2023-06-04T11:33:28;95858.59;;;23.80;90.64
21658;BME280;10990;48.174;9.782;2023-06-04T11:35:55;95857.91;;;23.66;88.17
21658;BME280;10990;48.174;9.782;2023-06-04T11:38:21;95849.94;;;23.90;91.20
21658;BME280;10990;48.174;9.782;2023-06-04T11:40:55;95856.50;;;23.64;94.96
21658;BME280;10990;48.174;9.782;2023-06-04T11:43:24;95856.28;;;23.47;93.64
21658;BME280;10990;48.174;9.782;2023-06-04T11:45:51;95862.13;;;23.07;94.48
21658;BME280;10990;48.174;9.782;2023-06-04T11:48:18;95852.09;;;23.33;90.77
21658;BME280;10990;48.174;9.782;2023-06-04T11:50:45;95849.34;;;23.69;87.15
21658;BME280;10990;48.174;9.782;2023-06-04T11:53:12;95849.97;;;22.91;90.00
21658;BME280;10990;48.174;9.782;2023-06-04T11:55:39;95851.25;;;23.14;92.73
21658;BME280;10990;48.174;9.782;2023-06-04T11:58:06;95847.59;;;23.26;93.98
21658;BME280;10990;48.174;9.782;2023-06-04T12:00:35;95848.63;;;23.07;84.95
21658;BME280;10990;48.174;9.782;2023-06-04T12:03:02;95842.41;;;23.80;84.53
21658;BME280;10990;48.174;9.782;2023-06-04T12:05:29;95837.06;;;23.74;77.42
21658;BME280;10990;48.174;9.782;2023-06-04T12:08:05;95828.09;;;24.22;76.51
21658;BME280;10990;48.174;9.782;2023-06-04T12:10:37;95840.00;;;23.72;80.82
21658;BME280;10990;48.174;9.782;2023-06-04T12:13:04;95854.84;;;23.08;86.76
21658;BME280;10990;48.174;9.782;2023-06-04T12:15:31;95839.63;;;23.68;83.75
21658;BME280;10990;48.174;9.782;2023-06-04T12:17:59;95844.28;;;23.61;84.87
21658;BME280;10990;48.174;9.782;2023-06-04T12:20:33;95839.91;;;23.79;81.85
21658;BME280;10990;48.174;9.782;2023-06-04T12:23:01;95838.41;;;24.13;81.65
21658;BME280;10990;48.174;9.782;2023-06-04T12:25:29;95836.03;;;24.47;80.45
21658;BME280;10990;48.174;9.782;2023-06-04T12:27:56;95833.00;;;24.13;82.77
21658;BME280;10990;48.174;9.782;2023-06-04T12:30:23;95838.19;;;23.66;84.55
21658;BME280;10990;48.174;9.782;2023-06-04T12:33:02;95838.13;;;23.36;81.26
21658;BME280;10990;48.174;9.782;2023-06-04T12:35:29;95838.03;;;23.05;81.93
21658;BME280;10990;48.174;9.782;2023-06-04T12:37:55;95839.88;;;22.87;83.01
21658;BME280;10990;48.174;9.782;2023-06-04T12:40:22;95841.63;;;22.74;88.63
21658;BME280;10990;48.174;9.782;2023-06-04T12:42:49;95853.69;;;22.22;89.82
21658;BME280;10990;48.174;9.782;2023-06-04T12:45:16;95852.38;;;22.31;91.22
21658;BME280;10990;48.174;9.782;2023-06-04T12:47:43;95844.56;;;22.48;91.74
21658;BME280;10990;48.174;9.782;2023-06-04T12:50:13;95842.50;;;22.93;89.20
21658;BME280;10990;48.174;9.782;2023-06-04T12:52:39;95832.44;;;23.44;87.56
21658;BME280;10990;48.174;9.782;2023-06-04T12:55:07;95841.28;;;23.88;89.28
21658;BME280;10990;48.174;9.782;2023-06-04T12:57:34;95826.25;;;23.74;80.94
21658;BME280;10990;48.174;9.782;2023-06-04T13:00:01;95828.53;;;23.03;82.51